createdAt,value
2018-12-18T00:00:54.970Z,62.50
2018-12-18T00:02:58.870Z,59.15
2018-12-18T00:05:06.801Z,65.50
2018-12-18T00:07:10.311Z,53.15
2018-12-18T00:09:14.218Z,60.50
2018-12-18T00:11:17.779Z,59.50
2018-12-18T00:13:20.990Z,63.65
2018-12-18T00:15:24.201Z,62.75
2018-12-18T00:17:27.419Z,64.97
2018-12-18T00:19:31.015Z,61.02
2018-12-18T00:21:34.542Z,63.78
2018-12-18T00:23:37.818Z,63.00
2018-12-18T00:25:41.414Z,64.85
2018-12-18T00:27:44.891Z,69.85
2018-12-18T00:29:48.127Z,65.30
2018-12-18T00:31:51.735Z,68.53
2018-12-18T00:33:55.211Z,71.40
2018-12-18T00:35:58.878Z,71.70
2018-12-18T00:38:02.370Z,70.30
2018-12-18T00:40:07.305Z,65.90
2018-12-18T00:42:10.911Z,67.80
2018-12-18T00:44:14.407Z,68.57
2018-12-18T00:46:17.850Z,68.12
2018-12-18T00:48:21.200Z,64.20
2018-12-18T00:50:24.522Z,60.00
2018-12-18T00:52:28.017Z,68.55
2018-12-18T00:54:31.972Z,64.00
2018-12-18T00:56:35.930Z,65.08
2018-12-18T00:58:39.414Z,61.08
2018-12-18T01:00:42.924Z,63.48
2018-12-18T01:02:46.479Z,63.63
2018-12-18T01:04:51.191Z,64.50
2018-12-18T01:06:55.614Z,56.88
2018-12-18T01:08:59.133Z,60.58
2018-12-18T01:11:03.732Z,65.45
2018-12-18T01:13:07.634Z,58.80
2018-12-18T01:15:11.270Z,62.40
2018-12-18T01:17:14.796Z,69.70
2018-12-18T01:19:18.024Z,68.15
2018-12-18T01:21:21.847Z,71.30
2018-12-18T01:23:25.866Z,64.45
2018-12-18T01:25:30.199Z,71.97
2018-12-18T01:27:33.722Z,79.40
2018-12-18T01:29:36.935Z,62.43
2018-12-18T01:31:40.454Z,62.00
2018-12-18T01:33:43.955Z,51.30
2018-12-18T01:35:47.957Z,61.88
2018-12-18T01:37:51.461Z,63.92
2018-12-18T01:39:54.938Z,60.65
2018-12-18T01:41:58.439Z,65.83
2018-12-18T01:44:02.550Z,63.92
2018-12-18T01:46:06.046Z,65.00
2018-12-18T01:48:09.619Z,55.45
2018-12-18T01:50:13.735Z,56.28
2018-12-18T01:52:17.246Z,63.78
2018-12-18T01:54:20.453Z,63.50
2018-12-18T01:56:23.743Z,69.80
2018-12-18T01:58:27.679Z,69.50
2018-12-18T02:00:31.330Z,71.70
2018-12-18T02:02:34.946Z,72.92
2018-12-18T02:04:38.176Z,73.57
2018-12-18T02:06:41.912Z,59.23
2018-12-18T02:08:45.587Z,70.97
2018-12-18T02:10:49.507Z,63.95
2018-12-18T02:12:52.721Z,63.73
2018-12-18T02:14:56.362Z,70.65
2018-12-18T02:16:59.865Z,70.70
2018-12-18T02:19:03.079Z,65.60
2018-12-18T02:21:07.194Z,67.78
2018-12-18T02:23:10.694Z,64.85
2018-12-18T02:25:15.555Z,68.52
2018-12-18T02:27:19.082Z,67.80
2018-12-18T02:29:22.574Z,67.80
2018-12-18T02:31:26.126Z,62.07
2018-12-18T02:33:30.011Z,64.00
2018-12-18T02:35:33.968Z,73.45
2018-12-18T02:37:37.248Z,63.80
2018-12-18T02:39:40.711Z,70.30
2018-12-18T02:41:44.231Z,68.00
2018-12-18T02:43:47.462Z,62.65
2018-12-18T02:45:51.184Z,66.72
2018-12-18T02:47:55.095Z,65.05
2018-12-18T02:49:58.563Z,62.50
2018-12-18T02:52:02.702Z,59.63
2018-12-18T02:54:06.237Z,74.70
2018-12-18T02:56:09.742Z,64.22
2018-12-18T02:58:13.540Z,65.70
2018-12-18T03:00:17.461Z,71.10
2018-12-18T03:02:21.335Z,59.80
2018-12-18T03:04:24.857Z,52.53
2018-12-18T03:06:28.350Z,56.15
2018-12-18T03:08:32.244Z,53.15
2018-12-18T03:10:35.854Z,60.45
2018-12-18T03:12:39.474Z,60.08
2018-12-18T03:14:43.390Z,65.55
2018-12-18T03:16:46.649Z,62.63
2018-12-18T03:18:50.459Z,60.55
2018-12-18T03:20:54.071Z,59.58
2018-12-18T03:22:57.798Z,65.37
2018-12-18T03:25:01.872Z,66.12
2018-12-18T03:27:06.430Z,63.20
2018-12-18T03:29:09.905Z,62.70
2018-12-18T03:31:13.452Z,56.02
2018-12-18T03:33:16.662Z,65.80
2018-12-18T03:35:20.169Z,59.23
2018-12-18T03:37:23.822Z,61.98
2018-12-18T03:39:27.011Z,63.77
2018-12-18T03:41:30.974Z,58.78
2018-12-18T03:43:34.648Z,71.07
2018-12-18T03:45:38.119Z,56.53
2018-12-18T03:47:41.319Z,62.30
2018-12-18T03:49:45.118Z,68.05
2018-12-18T03:51:48.618Z,58.48
2018-12-18T03:53:52.163Z,50.87
2018-12-18T03:55:56.490Z,58.10
2018-12-18T03:58:00.575Z,64.55
2018-12-18T04:00:08.220Z,53.13
2018-12-18T04:02:11.726Z,54.00
2018-12-18T04:04:15.645Z,56.23
2018-12-18T04:06:19.847Z,54.77
2018-12-18T04:08:23.378Z,46.40
2018-12-18T04:10:26.546Z,54.08
2018-12-18T04:12:29.776Z,57.83
2018-12-18T04:14:32.996Z,58.55
2018-12-18T04:16:36.234Z,46.43
2018-12-18T04:18:39.786Z,52.60
2018-12-18T04:20:43.363Z,51.08
2018-12-18T04:22:47.181Z,61.60
2018-12-18T04:24:51.162Z,57.48
2018-12-18T04:26:54.683Z,61.10
2018-12-18T04:28:58.238Z,58.37
2018-12-18T04:31:01.711Z,56.58
2018-12-18T04:33:05.206Z,65.80
2018-12-18T04:35:08.678Z,54.90
2018-12-18T04:37:12.401Z,61.23
2018-12-18T04:39:16.529Z,54.42
2018-12-18T04:41:20.419Z,51.33
2018-12-18T04:43:23.752Z,49.55
2018-12-18T04:45:26.998Z,52.83
2018-12-18T04:47:30.485Z,52.38
2018-12-18T04:49:33.969Z,47.10
2018-12-18T04:51:37.818Z,50.15
2018-12-18T04:53:41.710Z,42.70
2018-12-18T04:55:45.193Z,54.35
2018-12-18T04:57:48.763Z,60.73
2018-12-18T04:59:52.259Z,53.02
2018-12-18T05:01:55.744Z,56.45
2018-12-18T05:03:59.535Z,55.03
2018-12-18T05:06:03.388Z,48.20
2018-12-18T05:08:06.854Z,56.25
2018-12-18T05:10:10.410Z,52.75
2018-12-18T05:12:13.937Z,56.42
2018-12-18T05:14:17.449Z,56.45
2018-12-18T05:16:21.926Z,52.08
2018-12-18T05:18:25.686Z,48.85
2018-12-18T05:20:29.171Z,53.50
2018-12-18T05:22:32.683Z,44.88
2018-12-18T05:24:36.279Z,60.83
2018-12-18T05:26:39.780Z,48.48
2018-12-18T05:28:43.293Z,58.60
2018-12-18T05:30:46.538Z,50.13
2018-12-18T05:32:50.255Z,56.75
2018-12-18T05:34:56.528Z,54.80
2018-12-18T05:36:59.298Z,52.27
2018-12-18T05:39:02.816Z,48.55
2018-12-18T05:41:06.094Z,50.40
2018-12-18T05:43:09.698Z,42.73
2018-12-18T05:45:13.290Z,48.23
2018-12-18T05:47:16.710Z,50.97
2018-12-18T05:49:20.368Z,43.80
2018-12-18T05:51:23.554Z,59.33
2018-12-18T05:53:26.977Z,52.33
2018-12-18T05:55:30.467Z,48.75
2018-12-18T05:57:34.235Z,50.60
2018-12-18T05:59:37.752Z,41.95
2018-12-18T06:01:41.235Z,50.45
2018-12-18T06:03:44.456Z,48.67
2018-12-18T06:05:47.981Z,51.05
2018-12-18T06:07:51.477Z,55.48
2018-12-18T06:09:55.288Z,51.60
2018-12-18T06:11:58.795Z,47.35
2018-12-18T06:14:02.342Z,52.00
2018-12-18T06:16:05.834Z,51.50
2018-12-18T06:18:09.069Z,51.53
2018-12-18T06:20:13.297Z,46.75
2018-12-18T06:22:16.560Z,47.53
2018-12-18T06:24:20.043Z,42.65
2018-12-18T06:26:23.545Z,48.28
2018-12-18T06:28:27.334Z,45.17
2018-12-18T06:30:30.794Z,53.30
2018-12-18T06:32:34.998Z,39.48
2018-12-18T06:34:38.482Z,55.33
2018-12-18T06:36:41.957Z,50.88
2018-12-18T06:38:45.453Z,49.33
2018-12-18T06:40:48.931Z,46.60
2018-12-18T06:42:53.317Z,50.40
2018-12-18T06:44:56.882Z,48.00
2018-12-18T06:47:00.718Z,49.08
2018-12-18T06:49:03.934Z,49.48
2018-12-18T06:51:07.815Z,50.90
2018-12-18T06:53:11.432Z,44.58
2018-12-18T06:55:15.374Z,44.08
2018-12-18T06:57:19.036Z,45.30
2018-12-18T06:59:22.556Z,40.35
2018-12-18T07:01:25.807Z,52.50
2018-12-18T07:03:29.110Z,39.70
2018-12-18T07:05:32.846Z,47.25
2018-12-18T07:07:36.482Z,49.30
2018-12-18T07:09:40.078Z,46.20
2018-12-18T07:11:43.711Z,48.50
2018-12-18T07:13:47.230Z,44.75
2018-12-18T07:15:50.770Z,45.50
2018-12-18T07:17:54.301Z,56.40
2018-12-18T07:19:57.846Z,48.55
2018-12-18T07:22:01.120Z,51.00
2018-12-18T07:24:05.302Z,53.38
2018-12-18T07:26:08.782Z,51.23
2018-12-18T07:28:12.296Z,47.25
2018-12-18T07:30:15.556Z,59.35
2018-12-18T07:32:18.802Z,50.70
2018-12-18T07:34:22.310Z,54.53
2018-12-18T07:36:26.034Z,53.38
2018-12-18T07:38:29.518Z,58.87
2018-12-18T07:40:33.050Z,54.58
2018-12-18T07:42:36.293Z,65.52
2018-12-18T07:44:40.127Z,55.40
2018-12-18T07:46:43.602Z,56.37
2018-12-18T07:48:47.499Z,53.73
2018-12-18T07:50:51.462Z,52.20
2018-12-18T07:54:39.834Z,57.00
2018-12-18T07:56:43.290Z,55.70
2018-12-18T07:58:46.480Z,58.90
2018-12-18T08:00:50.050Z,61.75
2018-12-18T08:02:53.499Z,52.55
2018-12-18T08:04:56.754Z,56.53
2018-12-18T08:07:00.266Z,60.50
2018-12-18T08:09:06.438Z,53.33
2018-12-18T08:11:09.909Z,48.48
2018-12-18T08:13:13.643Z,55.73
2018-12-18T08:15:17.141Z,57.48
2018-12-18T08:17:20.630Z,58.58
2018-12-18T08:19:24.256Z,54.17
2018-12-18T08:21:27.722Z,48.83
2018-12-18T08:23:30.897Z,51.37
2018-12-18T08:25:34.136Z,44.13
2018-12-18T08:27:37.365Z,46.57
2018-12-18T08:29:41.238Z,46.37
2018-12-18T08:31:44.463Z,47.40
2018-12-18T08:33:48.310Z,41.63
2018-12-18T08:35:51.775Z,49.85
2018-12-18T08:37:55.074Z,42.27
2018-12-18T08:39:58.554Z,44.05
2018-12-18T08:42:02.059Z,44.83
2018-12-18T08:44:05.850Z,43.47
2018-12-18T08:46:10.371Z,41.28
2018-12-18T08:48:14.617Z,46.60
2018-12-18T08:50:17.827Z,50.63
2018-12-18T08:52:21.466Z,44.57
2018-12-18T08:54:24.921Z,40.70
2018-12-18T08:56:28.211Z,44.85
2018-12-18T08:58:31.414Z,37.90
2018-12-18T09:00:35.046Z,39.48
2018-12-18T09:02:39.075Z,39.65
2018-12-18T09:04:42.568Z,40.65
2018-12-18T09:06:45.766Z,39.33
2018-12-18T09:08:49.595Z,39.97
2018-12-18T09:10:53.061Z,37.48
2018-12-18T09:12:56.230Z,36.90
2018-12-18T09:15:01.471Z,35.57
2018-12-18T09:17:07.538Z,34.53
2018-12-18T09:19:11.318Z,32.38
2018-12-18T09:21:15.317Z,38.30
2018-12-18T09:23:18.830Z,36.68
2018-12-18T09:25:22.815Z,38.23
2018-12-18T09:27:26.061Z,39.88
2018-12-18T09:29:29.362Z,33.53
2018-12-18T09:31:32.832Z,37.17
2018-12-18T09:33:36.648Z,32.38
2018-12-18T09:35:40.998Z,34.50
2018-12-18T09:37:44.814Z,40.17
2018-12-18T09:39:48.104Z,39.50
2018-12-18T09:41:56.246Z,36.17
2018-12-18T09:44:04.998Z,42.80
2018-12-18T09:46:08.783Z,43.33
2018-12-18T09:48:12.255Z,42.20
2018-12-18T09:50:15.426Z,42.67
2018-12-18T09:52:18.638Z,43.30
2018-12-18T09:54:22.812Z,43.15
2018-12-18T09:56:26.090Z,43.97
2018-12-18T09:58:30.013Z,47.93
2018-12-18T10:00:34.118Z,46.28
2018-12-18T10:02:37.302Z,46.28
2018-12-18T10:04:41.357Z,45.60
2018-12-18T10:06:45.162Z,40.67
2018-12-18T10:08:48.975Z,38.33
2018-12-18T10:10:52.496Z,44.30
2018-12-18T10:12:56.849Z,46.33
2018-12-18T10:15:00.698Z,46.33
2018-12-18T10:17:04.184Z,45.58
2018-12-18T10:19:07.380Z,42.50
2018-12-18T10:21:10.978Z,46.75
2018-12-18T10:23:14.957Z,40.63
2018-12-18T10:25:18.587Z,44.30
2018-12-18T10:27:22.060Z,45.05
2018-12-18T10:29:25.555Z,44.25
2018-12-18T10:31:29.067Z,49.20
2018-12-18T10:33:32.536Z,47.50
2018-12-18T10:35:36.739Z,45.30
2018-12-18T10:37:41.393Z,46.13
2018-12-18T10:39:45.288Z,55.08
2018-12-18T10:41:49.697Z,55.25
2018-12-18T10:43:53.183Z,44.67
2018-12-18T10:45:57.098Z,45.60
2018-12-18T10:48:01.298Z,47.65
2018-12-18T10:50:05.216Z,45.90
2018-12-18T10:52:09.097Z,45.48
2018-12-18T10:54:12.450Z,51.00
2018-12-18T10:56:16.378Z,46.08
2018-12-18T10:58:23.926Z,51.53
2018-12-18T11:00:31.576Z,49.42
2018-12-18T11:02:35.107Z,51.17
2018-12-18T11:04:38.645Z,54.27
2018-12-18T11:06:42.542Z,47.20
2018-12-18T11:08:46.409Z,52.00
2018-12-18T11:10:49.588Z,49.17
2018-12-18T11:12:58.386Z,53.03
2018-12-18T11:15:01.873Z,47.43
2018-12-18T11:17:05.974Z,52.35
2018-12-18T11:19:09.178Z,47.67
2018-12-18T11:21:12.766Z,53.53
2018-12-18T11:23:16.214Z,49.88
2018-12-18T11:25:19.413Z,49.30
2018-12-18T11:27:22.938Z,54.70
2018-12-18T11:29:26.421Z,52.43
2018-12-18T11:31:29.964Z,50.17
2018-12-18T11:33:33.146Z,50.33
2018-12-18T11:35:36.341Z,52.53
2018-12-18T11:37:39.834Z,48.70
2018-12-18T11:39:43.298Z,49.70
2018-12-18T11:41:46.770Z,53.48
2018-12-18T11:43:50.288Z,50.35
2018-12-18T11:45:54.190Z,52.58
2018-12-18T11:47:57.893Z,48.00
2018-12-18T11:50:01.528Z,46.53
2018-12-18T11:52:05.219Z,54.25
2018-12-18T11:54:08.630Z,47.53
2018-12-18T11:56:12.096Z,50.20
2018-12-18T11:58:15.599Z,52.33
2018-12-18T12:00:19.807Z,51.95
2018-12-18T12:02:23.290Z,55.35
2018-12-18T12:04:26.806Z,49.18
2018-12-18T12:06:37.098Z,51.25
2018-12-18T12:08:41.086Z,53.42
2018-12-18T12:10:44.562Z,55.78
2018-12-18T12:12:48.026Z,52.58
2018-12-18T12:14:52.552Z,55.43
2018-12-18T12:16:55.987Z,55.95
2018-12-18T12:18:59.475Z,54.83
2018-12-18T12:21:02.934Z,51.47
2018-12-18T12:23:06.410Z,50.48
2018-12-18T12:25:10.663Z,47.55
2018-12-18T12:27:19.578Z,50.20
2018-12-18T12:29:23.045Z,49.03
2018-12-18T12:31:26.236Z,48.63
2018-12-18T12:33:29.459Z,48.40
2018-12-18T12:35:32.641Z,51.40
2018-12-18T12:37:35.835Z,48.60
2018-12-18T12:39:39.103Z,49.27
2018-12-18T12:41:42.619Z,40.85
2018-12-18T12:43:46.086Z,41.65
2018-12-18T12:45:49.278Z,39.58
2018-12-18T12:47:53.328Z,44.98
2018-12-18T12:49:56.778Z,35.90
2018-12-18T12:51:59.986Z,52.47
2018-12-18T12:54:03.184Z,47.60
2018-12-18T12:56:06.671Z,43.50
2018-12-18T12:58:10.266Z,39.33
2018-12-18T13:00:13.510Z,40.20
2018-12-18T13:02:16.740Z,36.17
2018-12-18T13:04:19.955Z,36.17
2018-12-18T13:06:24.126Z,38.08
2018-12-18T13:08:27.606Z,41.45
2018-12-18T13:10:31.451Z,37.25
2018-12-18T13:12:34.959Z,36.53
2018-12-18T13:14:38.487Z,36.00
2018-12-18T13:16:41.782Z,34.20
2018-12-18T13:18:44.971Z,36.17
2018-12-18T13:20:48.590Z,29.80
2018-12-18T13:22:52.188Z,31.77
2018-12-18T13:24:55.442Z,33.60
2018-12-18T13:26:58.650Z,34.23
2018-12-18T13:29:02.778Z,29.50
2018-12-18T13:31:06.246Z,33.13
2018-12-18T13:33:09.711Z,33.28
2018-12-18T13:35:13.703Z,34.70
2018-12-18T13:37:17.328Z,35.95
2018-12-18T13:39:26.618Z,34.10
2018-12-18T13:41:31.242Z,33.65
2018-12-18T13:43:34.838Z,32.33
2018-12-18T13:45:38.146Z,34.73
2018-12-18T13:47:41.835Z,30.90
2018-12-18T13:49:45.062Z,35.50
2018-12-18T13:51:48.328Z,30.02
2018-12-18T13:53:51.650Z,26.87
2018-12-18T13:55:55.187Z,31.20
2018-12-18T13:57:58.918Z,32.42
2018-12-18T14:00:02.767Z,32.17
2018-12-18T14:02:06.398Z,33.13
2018-12-18T14:04:09.987Z,33.45
2018-12-18T14:06:13.535Z,38.38
2018-12-18T14:08:17.161Z,37.48
2018-12-18T14:10:21.472Z,30.85
2018-12-18T14:12:24.961Z,32.38
2018-12-18T14:14:28.451Z,33.00
2018-12-18T14:16:31.961Z,34.23
2018-12-18T14:18:35.166Z,31.65
2018-12-18T14:20:38.563Z,30.65
2018-12-18T14:22:42.700Z,27.23
2018-12-18T14:24:45.943Z,30.00
2018-12-18T14:26:49.536Z,28.83
2018-12-18T14:28:53.348Z,29.27
2018-12-18T14:30:56.991Z,27.58
2018-12-18T14:33:00.374Z,31.68
2018-12-18T14:35:04.651Z,28.03
2018-12-18T14:37:08.467Z,29.15
2018-12-18T14:39:13.818Z,30.77
2018-12-18T14:41:17.492Z,31.60
2018-12-18T14:43:21.043Z,20.45
2018-12-18T14:45:25.863Z,23.40
2018-12-18T14:47:29.707Z,21.95
2018-12-18T14:49:33.360Z,21.62
2018-12-18T14:51:36.596Z,23.23
2018-12-18T14:53:40.142Z,26.48
2018-12-18T14:55:44.357Z,27.22
2018-12-18T14:57:48.067Z,22.30
2018-12-18T14:59:53.033Z,20.62
2018-12-18T15:01:57.268Z,20.52
2018-12-18T15:04:01.750Z,21.87
2018-12-18T15:06:06.278Z,20.23
2018-12-18T15:08:10.488Z,16.93
2018-12-18T15:10:14.212Z,16.93
2018-12-18T15:12:18.605Z,17.98
2018-12-18T15:14:22.790Z,16.50
2018-12-18T15:16:26.635Z,16.02
2018-12-18T15:18:30.312Z,19.30
2018-12-18T15:20:34.141Z,16.30
2018-12-18T15:22:37.385Z,17.75
2018-12-18T15:24:40.806Z,15.90
2018-12-18T15:26:44.567Z,18.62
2018-12-18T15:28:48.336Z,17.30
2018-12-18T15:30:51.838Z,23.25
2018-12-18T15:32:55.506Z,21.68
2018-12-18T15:34:59.527Z,20.37
2018-12-18T15:37:09.362Z,19.48
2018-12-18T15:39:09.220Z,24.67
2018-12-18T15:41:12.898Z,20.82
2018-12-18T15:43:16.599Z,25.82
2018-12-18T15:45:19.889Z,25.10
2018-12-18T15:47:23.770Z,24.93
2018-12-18T15:49:27.425Z,20.97
2018-12-18T15:51:31.245Z,21.17
2018-12-18T15:53:34.544Z,17.47
2018-12-18T15:55:38.998Z,23.15
2018-12-18T15:57:42.693Z,22.07
2018-12-18T15:59:46.668Z,21.00
2018-12-18T16:01:51.399Z,16.12
2018-12-18T16:03:55.116Z,19.45
2018-12-18T16:05:58.696Z,20.33
2018-12-18T16:08:02.533Z,18.05
2018-12-18T16:10:07.519Z,20.48
2018-12-18T16:12:10.881Z,17.70
2018-12-18T16:14:15.542Z,16.37
2018-12-18T16:16:19.195Z,24.47
2018-12-18T16:18:23.434Z,18.57
2018-12-18T16:20:27.167Z,18.30
2018-12-18T16:22:30.433Z,20.20
2018-12-18T16:24:34.031Z,16.62
2018-12-18T16:26:38.773Z,17.50
2018-12-18T16:28:42.416Z,14.47
2018-12-18T16:30:46.505Z,15.38
2018-12-18T16:32:50.231Z,17.30
2018-12-18T16:34:54.179Z,17.70
2018-12-18T16:36:58.767Z,17.37
2018-12-18T16:39:03.061Z,18.62
2018-12-18T16:41:06.712Z,12.88
2018-12-18T16:43:11.106Z,14.65
2018-12-18T16:45:14.663Z,15.78
2018-12-18T16:47:18.647Z,18.40
2018-12-18T16:49:22.270Z,18.05
2018-12-18T16:51:25.855Z,13.58
2018-12-18T16:53:30.999Z,15.63
2018-12-18T16:55:34.236Z,16.87
2018-12-18T16:57:37.658Z,18.37
2018-12-18T16:59:41.259Z,15.53
2018-12-18T17:01:45.081Z,15.60
2018-12-18T17:03:48.867Z,17.77
2018-12-18T17:05:52.500Z,15.13
2018-12-18T17:07:56.059Z,15.55
2018-12-18T17:09:59.381Z,13.87
2018-12-18T17:12:03.521Z,19.15
2018-12-18T17:14:07.086Z,18.15
2018-12-18T17:16:10.716Z,21.50
2018-12-18T17:18:14.249Z,20.35
2018-12-18T17:20:18.130Z,16.67
2018-12-18T17:22:21.886Z,18.20
2018-12-18T17:24:25.853Z,17.27
2018-12-18T17:26:29.944Z,19.32
2018-12-18T17:28:38.667Z,17.57
2018-12-18T17:30:42.073Z,24.23
2018-12-18T17:32:45.790Z,23.25
2018-12-18T17:34:49.292Z,17.50
2018-12-18T17:36:52.511Z,27.50
2018-12-18T17:38:55.743Z,26.43
2018-12-18T17:40:59.846Z,18.25
2018-12-18T17:43:03.858Z,21.05
2018-12-18T17:45:08.635Z,17.03
2018-12-18T17:47:16.552Z,18.52
2018-12-18T17:49:19.938Z,15.65
2018-12-18T17:51:23.627Z,17.65
2018-12-18T17:53:27.581Z,15.85
2018-12-18T17:55:31.438Z,18.82
2018-12-18T17:57:34.662Z,17.87
2018-12-18T17:59:38.195Z,17.35
2018-12-18T18:01:41.719Z,19.62
2018-12-18T18:03:44.963Z,17.83
2018-12-18T18:05:49.087Z,17.05
2018-12-18T18:07:52.716Z,20.17
2018-12-18T18:09:56.306Z,18.42
2018-12-18T18:11:59.934Z,16.82
2018-12-18T18:14:03.986Z,18.65
2018-12-18T18:16:07.675Z,17.30
2018-12-18T18:18:11.204Z,20.50
2018-12-18T18:20:15.321Z,16.77
2018-12-18T18:22:19.051Z,17.02
2018-12-18T18:24:22.991Z,16.70
2018-12-18T18:26:27.581Z,16.20
2018-12-18T18:28:31.587Z,19.73
2018-12-18T18:30:35.063Z,19.82
2018-12-18T18:32:38.348Z,17.12
2018-12-18T18:34:41.554Z,16.93
2018-12-18T18:36:45.178Z,19.20
2018-12-18T18:38:48.686Z,17.23
2018-12-18T18:40:51.982Z,16.10
2018-12-18T18:42:57.561Z,17.70
2018-12-18T18:45:02.564Z,17.20
2018-12-18T18:47:06.669Z,15.78
2018-12-18T18:49:10.658Z,20.15
2018-12-18T18:51:15.567Z,18.50
2018-12-18T18:53:20.452Z,18.67
2018-12-18T18:55:24.432Z,22.60
2018-12-18T18:57:28.002Z,19.10
2018-12-18T18:59:32.420Z,21.40
2018-12-18T19:01:36.609Z,17.12
2018-12-18T19:03:41.784Z,18.92
2018-12-18T19:05:46.688Z,18.67
2018-12-18T19:07:56.262Z,21.80
2018-12-18T19:09:55.937Z,17.75
2018-12-18T19:12:01.057Z,20.30
2018-12-18T19:14:06.251Z,19.63
2018-12-18T19:16:12.555Z,17.82
2018-12-18T19:18:17.342Z,15.78
2018-12-18T19:20:21.968Z,16.10
2018-12-18T19:22:25.850Z,16.52
2018-12-18T19:24:29.582Z,22.27
2018-12-18T19:26:34.589Z,18.40
2018-12-18T19:28:38.626Z,17.80
2018-12-18T19:33:03.951Z,21.13
2018-12-18T19:35:08.199Z,18.75
2018-12-18T19:37:12.080Z,17.05
2018-12-18T19:39:16.749Z,20.62
2018-12-18T19:41:21.979Z,16.10
2018-12-18T19:43:27.746Z,17.98
2018-12-18T19:45:32.447Z,18.15
2018-12-18T19:47:38.430Z,17.00
2018-12-18T19:49:42.499Z,17.32
2018-12-18T19:51:46.945Z,16.65
2018-12-18T19:53:51.558Z,15.32
2018-12-18T19:55:56.479Z,19.75
2018-12-18T19:58:01.039Z,17.73
2018-12-18T20:00:06.269Z,17.65
2018-12-18T20:02:09.988Z,17.55
2018-12-18T20:04:14.494Z,19.73
2018-12-18T20:06:18.627Z,18.60
2018-12-18T20:08:41.052Z,18.30
2018-12-18T20:10:44.531Z,18.57
2018-12-18T20:12:47.978Z,17.67
2018-12-18T20:14:51.230Z,24.60
2018-12-18T20:16:55.515Z,20.12
2018-12-18T20:19:01.026Z,20.02
2018-12-18T20:21:04.766Z,19.25
2018-12-18T20:23:08.830Z,24.47
2018-12-18T20:25:13.698Z,19.90
2018-12-18T20:27:19.450Z,19.85
2018-12-18T20:29:23.650Z,24.47
2018-12-18T20:31:28.895Z,18.25
2018-12-18T20:33:33.950Z,22.42
2018-12-18T20:35:38.072Z,23.42
2018-12-18T20:37:43.228Z,18.23
2018-12-18T20:39:48.009Z,17.35
2018-12-18T20:41:52.496Z,22.98
2018-12-18T20:43:56.160Z,23.45
2018-12-18T20:46:00.332Z,22.15
2018-12-18T20:48:04.266Z,24.63
2018-12-18T20:50:08.878Z,22.73
2018-12-18T20:52:12.826Z,24.30
2018-12-18T20:54:16.351Z,28.90
2018-12-18T20:56:20.563Z,19.57
2018-12-18T21:06:03.277Z,23.12
2018-12-18T21:08:08.093Z,24.90
2018-12-18T21:10:12.436Z,23.20
2018-12-18T21:12:16.273Z,23.83
2018-12-18T21:14:19.719Z,23.15
2018-12-18T21:16:24.016Z,24.45
2018-12-18T21:18:28.269Z,26.55
2018-12-18T21:20:32.203Z,23.30
2018-12-18T21:22:36.868Z,25.60
2018-12-18T21:24:40.416Z,22.27
2018-12-18T21:26:45.298Z,26.00
2018-12-18T21:28:56.109Z,20.43
2018-12-18T21:31:01.869Z,19.70
2018-12-18T21:33:05.822Z,21.87
2018-12-18T21:35:09.571Z,22.70
2018-12-18T21:37:14.697Z,19.23
2018-12-18T21:39:20.218Z,19.48
2018-12-18T21:41:23.885Z,21.12
2018-12-18T21:43:28.004Z,20.50
2018-12-18T21:45:32.084Z,17.90
2018-12-18T21:47:36.260Z,18.62
2018-12-18T21:49:40.592Z,19.80
2018-12-18T21:51:45.933Z,17.45
2018-12-18T21:53:49.221Z,16.97
2018-12-18T21:55:53.198Z,19.15
2018-12-18T21:57:57.174Z,16.80
2018-12-18T22:00:01.802Z,20.53
2018-12-18T22:02:06.801Z,14.70
2018-12-18T22:04:11.047Z,19.10
2018-12-18T22:06:17.404Z,17.17
2018-12-18T22:08:21.442Z,15.58
2018-12-18T22:10:25.954Z,14.17
2018-12-18T22:12:29.878Z,14.50
2018-12-18T22:14:33.954Z,17.20
2018-12-18T22:16:38.442Z,16.82
2018-12-18T22:18:42.202Z,17.17
2018-12-18T22:20:46.757Z,15.10
2018-12-18T22:22:51.165Z,16.42
2018-12-18T22:24:56.009Z,14.55
2018-12-18T22:27:00.195Z,17.10
2018-12-18T22:29:04.241Z,16.67
2018-12-18T22:31:07.451Z,15.80
2018-12-18T22:33:10.945Z,12.90
2018-12-18T22:35:15.232Z,16.32
2018-12-18T22:37:18.719Z,17.40
2018-12-18T22:39:22.228Z,18.65
2018-12-18T22:41:25.738Z,14.53
2018-12-18T22:43:28.931Z,15.83
2018-12-18T22:45:32.415Z,14.73
2018-12-18T22:47:35.996Z,16.77
2018-12-18T22:49:39.482Z,17.37
2018-12-18T22:51:42.968Z,14.87
2018-12-18T22:53:46.180Z,17.37
2018-12-18T22:55:49.374Z,19.20
2018-12-18T22:57:52.851Z,16.77
2018-12-18T22:59:57.683Z,18.20
2018-12-18T23:02:05.825Z,21.10
2018-12-18T23:04:09.309Z,22.67
2018-12-18T23:06:13.594Z,20.05
2018-12-18T23:08:17.417Z,21.37
2018-12-18T23:10:21.609Z,18.70
2018-12-18T23:12:25.193Z,17.50
2018-12-18T23:14:28.741Z,19.05
2018-12-18T23:16:32.821Z,18.80
2018-12-18T23:18:36.022Z,22.60
2018-12-18T23:20:40.020Z,21.95
2018-12-18T23:22:43.511Z,21.97
2018-12-18T23:24:47.006Z,21.95
2018-12-18T23:26:50.327Z,21.80
2018-12-18T23:28:53.827Z,23.80
2018-12-18T23:30:57.330Z,21.90
2018-12-18T23:33:01.129Z,22.42
2018-12-18T23:35:04.739Z,24.37
2018-12-18T23:37:08.246Z,22.77
2018-12-18T23:39:11.523Z,25.48
2018-12-18T23:41:15.658Z,19.82
2018-12-18T23:43:19.958Z,23.00
2018-12-18T23:45:24.247Z,25.37
2018-12-18T23:47:27.750Z,25.75
2018-12-18T23:49:30.934Z,25.27
2018-12-18T23:51:34.485Z,23.90
2018-12-18T23:53:37.980Z,25.60
2018-12-18T23:55:41.454Z,27.35
2018-12-18T23:57:44.977Z,27.62
2018-12-18T23:59:48.170Z,27.90
